sensor_id;sensor_type;location;lat;lon;timestamp;temperature;humidity
7900;DHT22;3995;50.856;4.404;2023-04-25T00:00:29;14.90;49.00
7900;DHT22;3995;50.856;4.404;2023-04-25T00:02:56;14.90;49.00
7900;DHT22;3995;50.856;4.404;2023-04-25T00:05:25;14.90;49.10
7900;DHT22;3995;50.856;4.404;2023-04-25T00:07:53;14.90;49.10
7900;DHT22;3995;50.856;4.404;2023-04-25T00:10:22;14.90;49.10
7900;DHT22;3995;50.856;4.404;2023-04-25T00:12:49;14.90;49.10
7900;DHT22;3995;50.856;4.404;2023-04-25T00:15:17;14.90;49.10
7900;DHT22;3995;50.856;4.404;2023-04-25T00:17:44;14.90;49.20
7900;DHT22;3995;50.856;4.404;2023-04-25T00:20:12;14.90;49.20
7900;DHT22;3995;50.856;4.404;2023-04-25T00:22:40;14.90;49.30
7900;DHT22;3995;50.856;4.404;2023-04-25T00:25:08;14.90;49.30
7900;DHT22;3995;50.856;4.404;2023-04-25T00:27:37;14.90;49.30
7900;DHT22;3995;50.856;4.404;2023-04-25T00:30:05;14.90;49.30
7900;DHT22;3995;50.856;4.404;2023-04-25T00:32:33;14.90;49.40
7900;DHT22;3995;50.856;4.404;2023-04-25T00:35:01;14.90;49.60
7900;DHT22;3995;50.856;4.404;2023-04-25T00:37:28;14.90;49.90
7900;DHT22;3995;50.856;4.404;2023-04-25T00:39:57;14.80;50.10
7900;DHT22;3995;50.856;4.404;2023-04-25T00:42:25;14.80;50.30
7900;DHT22;3995;50.856;4.404;2023-04-25T00:44:53;14.80;50.70
7900;DHT22;3995;50.856;4.404;2023-04-25T00:47:21;14.80;50.90
7900;DHT22;3995;50.856;4.404;2023-04-25T00:49:49;14.80;51.20
7900;DHT22;3995;50.856;4.404;2023-04-25T00:52:16;14.80;51.40
7900;DHT22;3995;50.856;4.404;2023-04-25T00:54:43;14.80;51.50
7900;DHT22;3995;50.856;4.404;2023-04-25T00:57:11;14.80;51.70
7900;DHT22;3995;50.856;4.404;2023-04-25T00:59:38;14.80;51.80
7900;DHT22;3995;50.856;4.404;2023-04-25T01:02:09;14.80;51.70
7900;DHT22;3995;50.856;4.404;2023-04-25T01:04:36;14.80;51.90
7900;DHT22;3995;50.856;4.404;2023-04-25T01:07:03;14.80;51.90
7900;DHT22;3995;50.856;4.404;2023-04-25T01:09:30;14.80;52.00
7900;DHT22;3995;50.856;4.404;2023-04-25T01:11:58;14.80;52.60
7900;DHT22;3995;50.856;4.404;2023-04-25T01:14:25;14.80;52.20
7900;DHT22;3995;50.856;4.404;2023-04-25T01:16:53;14.80;52.30
7900;DHT22;3995;50.856;4.404;2023-04-25T01:19:22;14.80;52.40
7900;DHT22;3995;50.856;4.404;2023-04-25T01:21:51;14.80;52.80
7900;DHT22;3995;50.856;4.404;2023-04-25T01:24:18;14.70;52.70
7900;DHT22;3995;50.856;4.404;2023-04-25T01:26:45;14.70;53.20
7900;DHT22;3995;50.856;4.404;2023-04-25T01:29:15;14.70;52.60
7900;DHT22;3995;50.856;4.404;2023-04-25T01:31:43;14.70;52.70
7900;DHT22;3995;50.856;4.404;2023-04-25T01:34:11;14.70;52.80
7900;DHT22;3995;50.856;4.404;2023-04-25T01:36:38;14.70;52.80
7900;DHT22;3995;50.856;4.404;2023-04-25T01:39:07;14.70;52.80
7900;DHT22;3995;50.856;4.404;2023-04-25T01:41:34;14.70;52.70
7900;DHT22;3995;50.856;4.404;2023-04-25T01:44:02;14.70;52.70
7900;DHT22;3995;50.856;4.404;2023-04-25T01:46:29;14.70;52.80
7900;DHT22;3995;50.856;4.404;2023-04-25T01:48:56;14.70;52.70
7900;DHT22;3995;50.856;4.404;2023-04-25T01:51:23;14.60;52.60
7900;DHT22;3995;50.856;4.404;2023-04-25T01:53:51;14.60;52.80
7900;DHT22;3995;50.856;4.404;2023-04-25T01:56:20;14.60;53.00
7900;DHT22;3995;50.856;4.404;2023-04-25T01:58:47;14.60;53.00
7900;DHT22;3995;50.856;4.404;2023-04-25T02:01:14;14.60;53.20
7900;DHT22;3995;50.856;4.404;2023-04-25T02:03:41;14.60;53.30
7900;DHT22;3995;50.856;4.404;2023-04-25T02:06:08;14.60;53.40
7900;DHT22;3995;50.856;4.404;2023-04-25T02:08:35;14.60;53.50
7900;DHT22;3995;50.856;4.404;2023-04-25T02:11:03;14.60;53.60
7900;DHT22;3995;50.856;4.404;2023-04-25T02:13:31;14.60;53.50
7900;DHT22;3995;50.856;4.404;2023-04-25T02:15:58;14.60;53.60
7900;DHT22;3995;50.856;4.404;2023-04-25T02:18:25;14.60;53.70
7900;DHT22;3995;50.856;4.404;2023-04-25T02:20:52;14.60;53.80
7900;DHT22;3995;50.856;4.404;2023-04-25T02:23:19;14.60;53.80
7900;DHT22;3995;50.856;4.404;2023-04-25T02:25:47;14.60;54.00
7900;DHT22;3995;50.856;4.404;2023-04-25T02:28:15;14.60;54.10
7900;DHT22;3995;50.856;4.404;2023-04-25T02:30:43;14.60;54.10
7900;DHT22;3995;50.856;4.404;2023-04-25T02:33:10;14.60;54.10
7900;DHT22;3995;50.856;4.404;2023-04-25T02:35:37;14.60;54.00
7900;DHT22;3995;50.856;4.404;2023-04-25T02:38:05;14.60;54.10
7900;DHT22;3995;50.856;4.404;2023-04-25T02:40:33;14.60;54.30
7900;DHT22;3995;50.856;4.404;2023-04-25T02:43:00;14.60;54.30
7900;DHT22;3995;50.856;4.404;2023-04-25T02:45:27;14.60;54.30
7900;DHT22;3995;50.856;4.404;2023-04-25T02:47:55;14.60;54.30
7900;DHT22;3995;50.856;4.404;2023-04-25T02:50:22;14.60;54.30
7900;DHT22;3995;50.856;4.404;2023-04-25T02:52:49;14.60;54.40
7900;DHT22;3995;50.856;4.404;2023-04-25T02:55:16;14.50;54.40
7900;DHT22;3995;50.856;4.404;2023-04-25T02:57:43;14.50;54.30
7900;DHT22;3995;50.856;4.404;2023-04-25T03:00:11;14.50;54.20
7900;DHT22;3995;50.856;4.404;2023-04-25T03:02:39;14.50;54.20
7900;DHT22;3995;50.856;4.404;2023-04-25T03:05:09;14.50;54.30
7900;DHT22;3995;50.856;4.404;2023-04-25T03:07:36;14.50;54.30
7900;DHT22;3995;50.856;4.404;2023-04-25T03:10:05;14.50;54.30
7900;DHT22;3995;50.856;4.404;2023-04-25T03:12:32;14.50;54.20
7900;DHT22;3995;50.856;4.404;2023-04-25T03:15:00;14.50;54.20
7900;DHT22;3995;50.856;4.404;2023-04-25T03:17:27;14.50;54.20
7900;DHT22;3995;50.856;4.404;2023-04-25T03:19:54;14.50;54.40
7900;DHT22;3995;50.856;4.404;2023-04-25T03:22:24;14.50;54.30
7900;DHT22;3995;50.856;4.404;2023-04-25T03:24:51;14.50;54.20
7900;DHT22;3995;50.856;4.404;2023-04-25T03:27:18;14.40;54.10
7900;DHT22;3995;50.856;4.404;2023-04-25T03:29:45;14.40;54.10
7900;DHT22;3995;50.856;4.404;2023-04-25T03:32:12;14.40;54.00
7900;DHT22;3995;50.856;4.404;2023-04-25T03:34:40;14.40;54.00
7900;DHT22;3995;50.856;4.404;2023-04-25T03:37:07;14.40;53.90
7900;DHT22;3995;50.856;4.404;2023-04-25T03:39:36;14.40;53.70
7900;DHT22;3995;50.856;4.404;2023-04-25T03:42:04;14.40;53.60
7900;DHT22;3995;50.856;4.404;2023-04-25T03:44:31;14.30;53.40
7900;DHT22;3995;50.856;4.404;2023-04-25T03:46:58;14.30;53.20
7900;DHT22;3995;50.856;4.404;2023-04-25T03:49:25;14.30;53.20
7900;DHT22;3995;50.856;4.404;2023-04-25T03:51:52;14.30;53.20
7900;DHT22;3995;50.856;4.404;2023-04-25T03:54:19;14.30;53.00
7900;DHT22;3995;50.856;4.404;2023-04-25T03:56:48;14.30;52.90
7900;DHT22;3995;50.856;4.404;2023-04-25T03:59:15;14.30;52.40
7900;DHT22;3995;50.856;4.404;2023-04-25T04:01:42;14.30;52.40
7900;DHT22;3995;50.856;4.404;2023-04-25T04:04:09;14.30;52.50
7900;DHT22;3995;50.856;4.404;2023-04-25T04:06:36;14.30;52.50
7900;DHT22;3995;50.856;4.404;2023-04-25T04:09:03;14.30;52.60
7900;DHT22;3995;50.856;4.404;2023-04-25T04:11:35;14.30;52.50
7900;DHT22;3995;50.856;4.404;2023-04-25T04:14:05;14.30;52.30
7900;DHT22;3995;50.856;4.404;2023-04-25T04:16:33;14.30;52.40
7900;DHT22;3995;50.856;4.404;2023-04-25T04:19:00;14.30;52.10
7900;DHT22;3995;50.856;4.404;2023-04-25T04:21:27;14.30;52.10
7900;DHT22;3995;50.856;4.404;2023-04-25T04:23:55;14.20;51.90
7900;DHT22;3995;50.856;4.404;2023-04-25T04:26:23;14.20;52.10
7900;DHT22;3995;50.856;4.404;2023-04-25T04:28:52;14.30;52.30
7900;DHT22;3995;50.856;4.404;2023-04-25T04:31:21;14.30;52.30
7900;DHT22;3995;50.856;4.404;2023-04-25T04:33:48;14.30;52.30
7900;DHT22;3995;50.856;4.404;2023-04-25T04:36:16;14.30;52.30
7900;DHT22;3995;50.856;4.404;2023-04-25T04:38:45;14.30;52.40
7900;DHT22;3995;50.856;4.404;2023-04-25T04:41:12;14.30;52.30
7900;DHT22;3995;50.856;4.404;2023-04-25T04:43:39;14.30;52.30
7900;DHT22;3995;50.856;4.404;2023-04-25T04:46:07;14.30;52.10
7900;DHT22;3995;50.856;4.404;2023-04-25T04:48:37;14.30;52.10
7900;DHT22;3995;50.856;4.404;2023-04-25T04:51:05;14.30;52.20
7900;DHT22;3995;50.856;4.404;2023-04-25T04:53:33;14.30;52.20
7900;DHT22;3995;50.856;4.404;2023-04-25T04:56:00;14.30;52.10
7900;DHT22;3995;50.856;4.404;2023-04-25T04:58:27;14.30;52.20
7900;DHT22;3995;50.856;4.404;2023-04-25T05:00:55;14.30;52.30
7900;DHT22;3995;50.856;4.404;2023-04-25T05:03:23;14.30;52.50
7900;DHT22;3995;50.856;4.404;2023-04-25T05:05:52;14.30;52.60
7900;DHT22;3995;50.856;4.404;2023-04-25T05:08:19;14.30;52.10
7900;DHT22;3995;50.856;4.404;2023-04-25T05:10:47;14.20;51.80
7900;DHT22;3995;50.856;4.404;2023-04-25T05:13:14;14.20;51.80
7900;DHT22;3995;50.856;4.404;2023-04-25T05:15:41;14.10;51.80
7900;DHT22;3995;50.856;4.404;2023-04-25T05:18:08;14.10;52.00
7900;DHT22;3995;50.856;4.404;2023-04-25T05:20:35;14.10;52.30
7900;DHT22;3995;50.856;4.404;2023-04-25T05:23:04;14.10;52.30
7900;DHT22;3995;50.856;4.404;2023-04-25T05:25:31;14.10;52.40
7900;DHT22;3995;50.856;4.404;2023-04-25T05:27:58;14.10;52.80
7900;DHT22;3995;50.856;4.404;2023-04-25T05:30:25;14.10;51.80
7900;DHT22;3995;50.856;4.404;2023-04-25T05:32:52;14.10;51.70
7900;DHT22;3995;50.856;4.404;2023-04-25T05:35:19;14.10;51.70
7900;DHT22;3995;50.856;4.404;2023-04-25T05:37:46;14.10;51.50
7900;DHT22;3995;50.856;4.404;2023-04-25T05:40:16;14.10;51.30
7900;DHT22;3995;50.856;4.404;2023-04-25T05:42:43;14.10;51.30
7900;DHT22;3995;50.856;4.404;2023-04-25T05:45:11;14.10;51.30
7900;DHT22;3995;50.856;4.404;2023-04-25T05:47:38;14.10;51.20
7900;DHT22;3995;50.856;4.404;2023-04-25T05:50:07;14.10;51.10
7900;DHT22;3995;50.856;4.404;2023-04-25T05:52:34;14.10;50.90
7900;DHT22;3995;50.856;4.404;2023-04-25T05:55:01;14.10;50.90
7900;DHT22;3995;50.856;4.404;2023-04-25T05:57:31;14.10;50.80
7900;DHT22;3995;50.856;4.404;2023-04-25T05:59:58;14.20;50.90
7900;DHT22;3995;50.856;4.404;2023-04-25T06:02:25;14.10;50.80
7900;DHT22;3995;50.856;4.404;2023-04-25T06:04:52;14.10;51.00
7900;DHT22;3995;50.856;4.404;2023-04-25T06:07:19;14.20;51.10
7900;DHT22;3995;50.856;4.404;2023-04-25T06:09:47;14.20;51.00
7900;DHT22;3995;50.856;4.404;2023-04-25T06:12:13;14.20;51.00
7900;DHT22;3995;50.856;4.404;2023-04-25T06:14:42;14.10;51.00
7900;DHT22;3995;50.856;4.404;2023-04-25T06:17:09;14.20;51.20
7900;DHT22;3995;50.856;4.404;2023-04-25T06:19:36;14.20;51.30
7900;DHT22;3995;50.856;4.404;2023-04-25T06:22:03;14.20;51.30
7900;DHT22;3995;50.856;4.404;2023-04-25T06:24:30;14.20;51.30
7900;DHT22;3995;50.856;4.404;2023-04-25T06:26:57;14.20;51.30
7900;DHT22;3995;50.856;4.404;2023-04-25T06:29:25;14.10;51.40
7900;DHT22;3995;50.856;4.404;2023-04-25T06:31:54;14.10;51.40
7900;DHT22;3995;50.856;4.404;2023-04-25T06:34:22;14.20;51.50
7900;DHT22;3995;50.856;4.404;2023-04-25T06:36:49;14.10;51.50
7900;DHT22;3995;50.856;4.404;2023-04-25T06:39:16;14.10;51.40
7900;DHT22;3995;50.856;4.404;2023-04-25T06:41:43;14.10;51.10
7900;DHT22;3995;50.856;4.404;2023-04-25T06:44:10;14.10;51.10
7900;DHT22;3995;50.856;4.404;2023-04-25T06:46:38;14.10;51.00
7900;DHT22;3995;50.856;4.404;2023-04-25T06:49:06;14.10;51.00
7900;DHT22;3995;50.856;4.404;2023-04-25T06:51:33;14.10;50.70
7900;DHT22;3995;50.856;4.404;2023-04-25T06:54:00;14.10;50.60
7900;DHT22;3995;50.856;4.404;2023-04-25T06:56:29;14.20;50.60
7900;DHT22;3995;50.856;4.404;2023-04-25T06:58:56;14.20;50.40
7900;DHT22;3995;50.856;4.404;2023-04-25T07:01:25;14.20;50.30
7900;DHT22;3995;50.856;4.404;2023-04-25T07:03:53;14.20;50.20
7900;DHT22;3995;50.856;4.404;2023-04-25T07:06:22;14.20;50.10
7900;DHT22;3995;50.856;4.404;2023-04-25T07:08:51;14.20;50.10
7900;DHT22;3995;50.856;4.404;2023-04-25T07:11:18;14.20;50.00
7900;DHT22;3995;50.856;4.404;2023-04-25T07:13:46;14.20;49.60
7900;DHT22;3995;50.856;4.404;2023-04-25T07:16:13;14.20;49.40
7900;DHT22;3995;50.856;4.404;2023-04-25T07:18:53;14.20;49.20
7900;DHT22;3995;50.856;4.404;2023-04-25T07:21:22;14.20;49.10
7900;DHT22;3995;50.856;4.404;2023-04-25T07:23:49;14.20;48.90
7900;DHT22;3995;50.856;4.404;2023-04-25T07:26:17;14.20;48.70
7900;DHT22;3995;50.856;4.404;2023-04-25T07:28:44;14.20;48.70
7900;DHT22;3995;50.856;4.404;2023-04-25T07:31:15;14.20;48.50
7900;DHT22;3995;50.856;4.404;2023-04-25T07:33:43;14.20;48.50
7900;DHT22;3995;50.856;4.404;2023-04-25T07:36:11;14.20;48.30
7900;DHT22;3995;50.856;4.404;2023-04-25T07:38:40;14.20;48.10
7900;DHT22;3995;50.856;4.404;2023-04-25T07:41:07;14.20;48.00
7900;DHT22;3995;50.856;4.404;2023-04-25T07:43:34;14.20;48.70
7900;DHT22;3995;50.856;4.404;2023-04-25T07:46:02;14.30;48.10
7900;DHT22;3995;50.856;4.404;2023-04-25T07:48:29;14.30;47.90
7900;DHT22;3995;50.856;4.404;2023-04-25T07:50:56;14.30;48.00
7900;DHT22;3995;50.856;4.404;2023-04-25T07:53:24;14.30;47.80
7900;DHT22;3995;50.856;4.404;2023-04-25T07:55:52;14.30;47.70
7900;DHT22;3995;50.856;4.404;2023-04-25T07:58:19;14.30;47.60
7900;DHT22;3995;50.856;4.404;2023-04-25T08:00:47;14.30;47.70
7900;DHT22;3995;50.856;4.404;2023-04-25T08:03:14;14.30;47.80
7900;DHT22;3995;50.856;4.404;2023-04-25T08:05:41;14.30;47.60
7900;DHT22;3995;50.856;4.404;2023-04-25T08:08:09;14.40;47.40
7900;DHT22;3995;50.856;4.404;2023-04-25T08:10:36;14.40;47.20
7900;DHT22;3995;50.856;4.404;2023-04-25T08:13:05;14.40;47.10
7900;DHT22;3995;50.856;4.404;2023-04-25T08:15:32;14.40;47.00
7900;DHT22;3995;50.856;4.404;2023-04-25T08:17:59;14.40;47.00
7900;DHT22;3995;50.856;4.404;2023-04-25T08:20:26;14.40;46.90
7900;DHT22;3995;50.856;4.404;2023-04-25T08:22:53;14.40;46.80
7900;DHT22;3995;50.856;4.404;2023-04-25T08:25:20;14.40;46.70
7900;DHT22;3995;50.856;4.404;2023-04-25T08:27:47;14.40;46.70
7900;DHT22;3995;50.856;4.404;2023-04-25T08:30:16;14.50;46.80
7900;DHT22;3995;50.856;4.404;2023-04-25T08:32:43;14.50;46.70
7900;DHT22;3995;50.856;4.404;2023-04-25T08:35:10;14.50;46.60
7900;DHT22;3995;50.856;4.404;2023-04-25T08:37:37;14.50;46.50
7900;DHT22;3995;50.856;4.404;2023-04-25T08:40:05;14.50;46.20
7900;DHT22;3995;50.856;4.404;2023-04-25T08:42:35;14.50;46.20
7900;DHT22;3995;50.856;4.404;2023-04-25T08:45:04;14.50;46.20
7900;DHT22;3995;50.856;4.404;2023-04-25T08:47:34;14.60;46.20
7900;DHT22;3995;50.856;4.404;2023-04-25T08:50:02;14.50;46.10
7900;DHT22;3995;50.856;4.404;2023-04-25T08:52:37;14.60;45.70
7900;DHT22;3995;50.856;4.404;2023-04-25T08:55:07;14.60;45.20
7900;DHT22;3995;50.856;4.404;2023-04-25T08:57:37;14.50;45.10
7900;DHT22;3995;50.856;4.404;2023-04-25T09:00:06;14.60;45.70
7900;DHT22;3995;50.856;4.404;2023-04-25T09:02:35;14.60;45.20
7900;DHT22;3995;50.856;4.404;2023-04-25T09:05:03;14.60;45.30
7900;DHT22;3995;50.856;4.404;2023-04-25T09:07:30;14.60;45.40
7900;DHT22;3995;50.856;4.404;2023-04-25T09:09:58;14.60;45.20
7900;DHT22;3995;50.856;4.404;2023-04-25T09:12:29;14.60;44.90
7900;DHT22;3995;50.856;4.404;2023-04-25T09:15:04;14.70;44.70
7900;DHT22;3995;50.856;4.404;2023-04-25T09:17:32;14.70;44.20
7900;DHT22;3995;50.856;4.404;2023-04-25T09:20:08;14.70;43.90
7900;DHT22;3995;50.856;4.404;2023-04-25T09:22:36;14.80;43.60
7900;DHT22;3995;50.856;4.404;2023-04-25T09:25:07;14.70;43.50
7900;DHT22;3995;50.856;4.404;2023-04-25T09:27:34;14.70;43.20
7900;DHT22;3995;50.856;4.404;2023-04-25T09:30:02;14.70;43.30
7900;DHT22;3995;50.856;4.404;2023-04-25T09:32:30;14.70;43.40
7900;DHT22;3995;50.856;4.404;2023-04-25T09:34:58;14.70;43.40
7900;DHT22;3995;50.856;4.404;2023-04-25T09:37:28;14.80;43.40
7900;DHT22;3995;50.856;4.404;2023-04-25T09:39:58;14.70;43.10
7900;DHT22;3995;50.856;4.404;2023-04-25T09:42:27;14.70;43.20
7900;DHT22;3995;50.856;4.404;2023-04-25T09:44:55;14.70;43.30
7900;DHT22;3995;50.856;4.404;2023-04-25T09:47:24;14.70;43.60
7900;DHT22;3995;50.856;4.404;2023-04-25T09:49:51;14.80;44.00
7900;DHT22;3995;50.856;4.404;2023-04-25T09:52:20;14.80;44.10
7900;DHT22;3995;50.856;4.404;2023-04-25T09:54:49;14.80;44.30
7900;DHT22;3995;50.856;4.404;2023-04-25T09:57:18;14.80;44.80
7900;DHT22;3995;50.856;4.404;2023-04-25T09:59:47;14.80;45.20
7900;DHT22;3995;50.856;4.404;2023-04-25T10:02:17;14.90;45.40
7900;DHT22;3995;50.856;4.404;2023-04-25T10:04:48;14.90;44.90
7900;DHT22;3995;50.856;4.404;2023-04-25T10:07:18;14.90;44.50
7900;DHT22;3995;50.856;4.404;2023-04-25T10:09:49;14.90;44.10
7900;DHT22;3995;50.856;4.404;2023-04-25T10:12:21;15.00;44.20
7900;DHT22;3995;50.856;4.404;2023-04-25T10:14:48;15.10;43.90
7900;DHT22;3995;50.856;4.404;2023-04-25T10:17:16;15.20;43.50
7900;DHT22;3995;50.856;4.404;2023-04-25T10:19:44;15.30;43.20
7900;DHT22;3995;50.856;4.404;2023-04-25T10:22:15;15.40;42.60
7900;DHT22;3995;50.856;4.404;2023-04-25T10:24:46;15.50;42.40
7900;DHT22;3995;50.856;4.404;2023-04-25T10:27:15;15.50;42.20
7900;DHT22;3995;50.856;4.404;2023-04-25T10:29:44;15.60;42.80
7900;DHT22;3995;50.856;4.404;2023-04-25T10:32:32;15.70;41.90
7900;DHT22;3995;50.856;4.404;2023-04-25T10:35:10;15.70;41.50
7900;DHT22;3995;50.856;4.404;2023-04-25T10:37:38;15.90;40.80
7900;DHT22;3995;50.856;4.404;2023-04-25T10:40:09;15.90;40.90
7900;DHT22;3995;50.856;4.404;2023-04-25T10:42:41;16.00;40.30
7900;DHT22;3995;50.856;4.404;2023-04-25T10:45:09;16.10;39.90
7900;DHT22;3995;50.856;4.404;2023-04-25T10:47:47;16.10;40.00
7900;DHT22;3995;50.856;4.404;2023-04-25T10:50:37;16.20;39.60
7900;DHT22;3995;50.856;4.404;2023-04-25T10:53:16;16.20;39.20
7900;DHT22;3995;50.856;4.404;2023-04-25T10:55:49;16.30;39.10
7900;DHT22;3995;50.856;4.404;2023-04-25T10:58:22;16.40;39.00
7900;DHT22;3995;50.856;4.404;2023-04-25T11:00:50;16.40;39.10
7900;DHT22;3995;50.856;4.404;2023-04-25T11:03:17;16.40;38.90
7900;DHT22;3995;50.856;4.404;2023-04-25T11:05:45;16.40;39.20
7900;DHT22;3995;50.856;4.404;2023-04-25T11:08:20;16.40;39.30
7900;DHT22;3995;50.856;4.404;2023-04-25T11:10:52;16.40;39.30
7900;DHT22;3995;50.856;4.404;2023-04-25T11:13:22;16.40;40.00
7900;DHT22;3995;50.856;4.404;2023-04-25T11:15:51;16.30;40.70
7900;DHT22;3995;50.856;4.404;2023-04-25T11:18:19;16.20;41.00
7900;DHT22;3995;50.856;4.404;2023-04-25T11:20:48;16.10;41.10
7900;DHT22;3995;50.856;4.404;2023-04-25T11:23:16;16.10;41.30
7900;DHT22;3995;50.856;4.404;2023-04-25T11:25:44;16.00;41.40
7900;DHT22;3995;50.856;4.404;2023-04-25T11:28:11;16.00;41.60
7900;DHT22;3995;50.856;4.404;2023-04-25T11:30:48;16.00;41.70
7900;DHT22;3995;50.856;4.404;2023-04-25T11:33:16;16.00;41.90
7900;DHT22;3995;50.856;4.404;2023-04-25T11:35:43;16.00;41.80
7900;DHT22;3995;50.856;4.404;2023-04-25T11:38:10;16.00;41.90
7900;DHT22;3995;50.856;4.404;2023-04-25T11:40:38;15.90;42.10
7900;DHT22;3995;50.856;4.404;2023-04-25T11:43:05;15.90;42.10
7900;DHT22;3995;50.856;4.404;2023-04-25T11:45:33;15.90;42.20
7900;DHT22;3995;50.856;4.404;2023-04-25T11:48:03;15.90;42.10
7900;DHT22;3995;50.856;4.404;2023-04-25T11:50:30;16.00;41.80
7900;DHT22;3995;50.856;4.404;2023-04-25T11:52:57;16.10;41.70
7900;DHT22;3995;50.856;4.404;2023-04-25T11:55:24;16.20;41.20
7900;DHT22;3995;50.856;4.404;2023-04-25T11:57:52;16.20;40.30
7900;DHT22;3995;50.856;4.404;2023-04-25T12:00:21;16.30;40.00
7900;DHT22;3995;50.856;4.404;2023-04-25T12:02:53;16.40;40.20
7900;DHT22;3995;50.856;4.404;2023-04-25T12:05:24;16.60;39.70
7900;DHT22;3995;50.856;4.404;2023-04-25T12:07:51;16.80;39.10
7900;DHT22;3995;50.856;4.404;2023-04-25T12:10:19;17.10;39.10
7900;DHT22;3995;50.856;4.404;2023-04-25T12:12:47;17.40;38.60
7900;DHT22;3995;50.856;4.404;2023-04-25T12:15:16;17.60;38.50
7900;DHT22;3995;50.856;4.404;2023-04-25T12:17:45;17.60;38.40
7900;DHT22;3995;50.856;4.404;2023-04-25T12:20:14;17.50;38.30
7900;DHT22;3995;50.856;4.404;2023-04-25T12:22:44;17.40;38.10
7900;DHT22;3995;50.856;4.404;2023-04-25T12:25:12;17.30;37.90
7900;DHT22;3995;50.856;4.404;2023-04-25T12:27:40;17.10;37.20
7900;DHT22;3995;50.856;4.404;2023-04-25T12:30:08;17.00;36.80
7900;DHT22;3995;50.856;4.404;2023-04-25T12:32:39;16.90;36.90
7900;DHT22;3995;50.856;4.404;2023-04-25T12:35:08;16.80;36.60
7900;DHT22;3995;50.856;4.404;2023-04-25T12:37:35;16.70;36.20
7900;DHT22;3995;50.856;4.404;2023-04-25T12:40:04;16.60;36.60
7900;DHT22;3995;50.856;4.404;2023-04-25T12:42:32;16.70;36.00
7900;DHT22;3995;50.856;4.404;2023-04-25T12:45:00;16.70;36.00
7900;DHT22;3995;50.856;4.404;2023-04-25T12:47:27;16.90;36.20
7900;DHT22;3995;50.856;4.404;2023-04-25T12:49:55;17.10;36.30
7900;DHT22;3995;50.856;4.404;2023-04-25T12:52:22;17.20;36.40
7900;DHT22;3995;50.856;4.404;2023-04-25T12:54:49;17.30;36.20
7900;DHT22;3995;50.856;4.404;2023-04-25T12:57:21;17.30;36.00
7900;DHT22;3995;50.856;4.404;2023-04-25T12:59:48;17.30;35.90
7900;DHT22;3995;50.856;4.404;2023-04-25T13:02:15;17.20;36.10
7900;DHT22;3995;50.856;4.404;2023-04-25T13:04:45;17.10;36.60
7900;DHT22;3995;50.856;4.404;2023-04-25T13:07:12;17.10;37.10
7900;DHT22;3995;50.856;4.404;2023-04-25T13:09:39;17.00;37.50
7900;DHT22;3995;50.856;4.404;2023-04-25T13:12:06;16.90;37.90
7900;DHT22;3995;50.856;4.404;2023-04-25T13:14:38;16.80;38.10
7900;DHT22;3995;50.856;4.404;2023-04-25T13:17:06;16.80;37.90
7900;DHT22;3995;50.856;4.404;2023-04-25T13:19:33;16.80;38.20
7900;DHT22;3995;50.856;4.404;2023-04-25T13:22:00;16.80;37.90
7900;DHT22;3995;50.856;4.404;2023-04-25T13:24:29;16.80;37.90
7900;DHT22;3995;50.856;4.404;2023-04-25T13:26:56;16.70;37.60
7900;DHT22;3995;50.856;4.404;2023-04-25T13:29:23;16.70;37.40
7900;DHT22;3995;50.856;4.404;2023-04-25T13:31:52;16.70;37.10
7900;DHT22;3995;50.856;4.404;2023-04-25T13:34:20;16.60;37.30
7900;DHT22;3995;50.856;4.404;2023-04-25T13:36:47;16.60;37.40
7900;DHT22;3995;50.856;4.404;2023-04-25T13:39:14;16.60;37.40
7900;DHT22;3995;50.856;4.404;2023-04-25T13:41:41;16.60;37.80
7900;DHT22;3995;50.856;4.404;2023-04-25T13:44:09;16.50;36.40
7900;DHT22;3995;50.856;4.404;2023-04-25T13:46:36;16.50;36.00
7900;DHT22;3995;50.856;4.404;2023-04-25T13:49:05;16.50;35.50
7900;DHT22;3995;50.856;4.404;2023-04-25T13:51:32;16.50;35.30
7900;DHT22;3995;50.856;4.404;2023-04-25T13:54:00;16.40;35.30
7900;DHT22;3995;50.856;4.404;2023-04-25T13:56:27;16.40;35.90
7900;DHT22;3995;50.856;4.404;2023-04-25T13:58:54;16.40;36.50
7900;DHT22;3995;50.856;4.404;2023-04-25T14:01:22;16.40;37.00
7900;DHT22;3995;50.856;4.404;2023-04-25T14:03:49;16.40;37.50
7900;DHT22;3995;50.856;4.404;2023-04-25T14:06:18;16.40;37.80
7900;DHT22;3995;50.856;4.404;2023-04-25T14:08:48;16.40;38.10
7900;DHT22;3995;50.856;4.404;2023-04-25T14:11:15;16.40;38.20
7900;DHT22;3995;50.856;4.404;2023-04-25T14:13:43;16.30;38.30
7900;DHT22;3995;50.856;4.404;2023-04-25T14:16:11;16.30;38.60
7900;DHT22;3995;50.856;4.404;2023-04-25T14:18:38;16.30;38.20
7900;DHT22;3995;50.856;4.404;2023-04-25T14:21:06;16.30;37.40
7900;DHT22;3995;50.856;4.404;2023-04-25T14:23:34;16.30;37.30
7900;DHT22;3995;50.856;4.404;2023-04-25T14:26:02;16.40;37.20
7900;DHT22;3995;50.856;4.404;2023-04-25T14:28:29;16.30;37.10
7900;DHT22;3995;50.856;4.404;2023-04-25T14:30:56;16.40;37.00
7900;DHT22;3995;50.856;4.404;2023-04-25T14:33:23;16.30;36.80
7900;DHT22;3995;50.856;4.404;2023-04-25T14:35:50;16.30;36.70
7900;DHT22;3995;50.856;4.404;2023-04-25T14:38:18;16.30;36.20
7900;DHT22;3995;50.856;4.404;2023-04-25T14:40:50;16.30;36.10
7900;DHT22;3995;50.856;4.404;2023-04-25T14:43:17;16.30;36.20
7900;DHT22;3995;50.856;4.404;2023-04-25T14:45:45;16.30;36.20
7900;DHT22;3995;50.856;4.404;2023-04-25T14:48:14;16.30;36.30
7900;DHT22;3995;50.856;4.404;2023-04-25T14:50:44;16.30;36.50
7900;DHT22;3995;50.856;4.404;2023-04-25T14:53:12;16.30;36.80
7900;DHT22;3995;50.856;4.404;2023-04-25T14:55:40;16.30;36.70
7900;DHT22;3995;50.856;4.404;2023-04-25T14:58:14;16.30;36.60
7900;DHT22;3995;50.856;4.404;2023-04-25T15:00:41;16.20;36.40
7900;DHT22;3995;50.856;4.404;2023-04-25T15:03:09;16.20;36.70
7900;DHT22;3995;50.856;4.404;2023-04-25T15:05:41;16.30;36.90
7900;DHT22;3995;50.856;4.404;2023-04-25T15:08:08;16.30;36.50
7900;DHT22;3995;50.856;4.404;2023-04-25T15:10:35;16.20;36.10
7900;DHT22;3995;50.856;4.404;2023-04-25T15:13:03;16.30;36.00
7900;DHT22;3995;50.856;4.404;2023-04-25T15:15:32;16.20;35.80
7900;DHT22;3995;50.856;4.404;2023-04-25T15:17:59;16.20;35.80
7900;DHT22;3995;50.856;4.404;2023-04-25T15:20:26;16.20;36.00
7900;DHT22;3995;50.856;4.404;2023-04-25T15:22:54;16.20;36.10
7900;DHT22;3995;50.856;4.404;2023-04-25T15:25:21;16.20;36.20
7900;DHT22;3995;50.856;4.404;2023-04-25T15:27:48;16.20;36.20
7900;DHT22;3995;50.856;4.404;2023-04-25T15:30:17;16.20;36.10
7900;DHT22;3995;50.856;4.404;2023-04-25T15:32:46;16.20;36.10
7900;DHT22;3995;50.856;4.404;2023-04-25T15:35:14;16.20;36.10
7900;DHT22;3995;50.856;4.404;2023-04-25T15:37:41;16.20;36.10
7900;DHT22;3995;50.856;4.404;2023-04-25T15:40:11;16.10;35.40
7900;DHT22;3995;50.856;4.404;2023-04-25T15:42:39;16.10;35.30
7900;DHT22;3995;50.856;4.404;2023-04-25T15:45:09;16.10;35.20
7900;DHT22;3995;50.856;4.404;2023-04-25T15:47:37;16.10;35.70
7900;DHT22;3995;50.856;4.404;2023-04-25T15:50:08;16.00;36.20
7900;DHT22;3995;50.856;4.404;2023-04-25T15:52:36;16.00;36.60
7900;DHT22;3995;50.856;4.404;2023-04-25T15:55:04;16.00;36.40
7900;DHT22;3995;50.856;4.404;2023-04-25T15:57:34;16.00;36.10
7900;DHT22;3995;50.856;4.404;2023-04-25T16:00:01;16.00;36.20
7900;DHT22;3995;50.856;4.404;2023-04-25T16:02:32;16.00;36.30
7900;DHT22;3995;50.856;4.404;2023-04-25T16:05:00;15.90;36.10
7900;DHT22;3995;50.856;4.404;2023-04-25T16:07:29;15.90;36.00